• Join FlightAware (Why Join?)
  • Login
  • US Flag 
03:04PM EDT


 

Airport Tracker/Info


-or-


 

Live Flight TrackerFlight Track Log ✈ N789EX ✈ 22-Mar-2014 ✈ KBFI - KMWH

Flight Track Log - Related Links

Times and Time Zones

All times are in EDT time to prevent confusion due to time zone crossing. See the N789EX flight status page for this flight to view local times or setup timezone preferences in your user account.

Time Position Orientation Groundspeed Altitude Reporting Facility
EDT Latitude Longitude Course Direction KTS MPH feet Rate Location/Type
11:35AM 47.5095 -122.2850 148° Southeast 178 205 900  Level FlightAware ADS-B
11:36AM 47.4980 -122.2740 147° Southeast 202 232 1,400 1,980 Climbing FlightAware ADS-B
11:36AM 47.4837 -122.2610 148° Southeast 223 257 2,000 2,220 Climbing FlightAware ADS-B
11:36AM 47.4695 -122.2480 148° Southeast 243 280 2,600 2,520 Climbing FlightAware ADS-B
11:36AM 47.4595 -122.2380 146° Southeast 250 288 3,100 2,520 Climbing FlightAware ADS-B
11:36AM 47.4568 -122.2350 144° Southeast 252 290 3,200 3,000 Climbing FlightAware ADS-B
11:36AM 47.4538 -122.2320 139° Southeast 253 291 3,400 3,420 Climbing FlightAware ADS-B
11:36AM 47.4504 -122.2260 132° Southeast 256 295 3,600 3,720 Climbing FlightAware ADS-B
11:36AM 47.4479 -122.2210 124° Southeast 257 296 3,900 3,420 Climbing FlightAware ADS-B
11:37AM 47.4460 -122.2170 119° Southeast 258 297 4,000 3,000 Climbing FlightAware ADS-B
11:37AM 47.4445 -122.2120 115° Southeast 259 298 4,200 4,260 Climbing FlightAware ADS-B
11:37AM 47.4428 -122.2050 109° East 261 300 4,500 4,260 Climbing FlightAware ADS-B
11:37AM 47.4416 -122.1990 102° East 263 303 4,700 2,220 Climbing FlightAware ADS-B
11:37AM 47.4411 -122.1940 99° East 264 304 4,800 1,980 Climbing FlightAware ADS-B
11:37AM 47.4408 -122.1870 94° East 266 306 5,000 2,820 Climbing FlightAware ADS-B
11:37AM 47.4404 -122.1710 92° East 267 307 5,600 3,840 Climbing FlightAware ADS-B
11:37AM 47.4395 -122.1350 92° East 272 313 6,800 4,020 Climbing FlightAware ADS-B
11:38AM 47.4388 -122.1050 92° East 277 319 7,700 3,000 Climbing FlightAware ADS-B
11:38AM 47.4383 -122.0760 92° East 284 327 8,400 3,060 Climbing FlightAware ADS-B
11:38AM 47.4376 -122.0420 92° East 293 337 9,300 2,760 Climbing FlightAware ADS-B
11:39AM 47.4363 -121.9820 92° East 321 369 10,400 1,860 Climbing FlightAware ADS-B
11:39AM 47.4358 -121.9622 92° East 345 397 10,700 1,200 Climbing FlightAware ADS-B (CYVR)
11:39AM 47.4346 -121.9120 92° East 360 414 11,000 1,140 Climbing FlightAware ADS-B
11:39AM 47.4337 -121.8783 92° East 382 440 11,300 1,320 Climbing FlightAware ADS-B (CYVR)
11:40AM 47.4325 -121.8330 92° East 396 456 11,700 2,340 Climbing FlightAware ADS-B
11:40AM 47.4303 -121.7490 92° East 411 473 13,000 2,640 Climbing FlightAware ADS-B
11:41AM 47.4284 -121.6630 91° East 420 483 14,400 2,640 Climbing FlightAware ADS-B
11:41AM 47.4272 -121.5740 91° East 430 495 15,700 2,160 Climbing FlightAware ADS-B
11:42AM 47.4262 -121.4830 91° East 445 512 16,600 1,620 Climbing FlightAware ADS-B
11:42AM 47.4261 -121.4764 91° East 446 513 16,600  Level FlightAware ADS-B (CYVR)
11:42AM 47.4249 -121.3910 91° East 444 511 16,600  Level FlightAware ADS-B
11:42AM 47.4249 -121.3894 91° East 444 511 16,600  Level FlightAware ADS-B (CYVR)
11:43AM 47.4234 -121.3000 91° East 441 507 16,600  Level FlightAware ADS-B
11:43AM 47.4231 -121.2864 92° East 441 507 16,600  Level FlightAware ADS-B (CYVR)
11:43AM 47.4217 -121.2090 92° East 439 505 16,600  Level FlightAware ADS-B
11:44AM 47.4203 -121.1369 92° East 437 503 16,600  Level FlightAware ADS-B (CYVR)
11:44AM 47.4200 -121.1180 92° East 437 503 16,600  Level FlightAware ADS-B
11:44AM 47.4182 -121.0280 92° East 438 504 16,600  Level FlightAware ADS-B
11:45AM 47.4164 -120.9370 92° East 439 505 16,600  Level FlightAware ADS-B
11:45AM 47.4146 -120.8460 92° East 439 505 16,600  Level FlightAware ADS-B
11:46AM 47.4126 -120.7550 92° East 438 504 16,600  Level FlightAware ADS-B
11:46AM 47.4107 -120.6640 92° East 437 503 16,600  Level FlightAware ADS-B
11:47AM 47.4084 -120.5640 92° East 438 504 16,600  Level FlightAware ADS-B
11:47AM 47.4063 -120.4750 92° East 437 503 16,600  Level FlightAware ADS-B
11:49AM 47.3981 -120.1510 92° East 402 463 16,600 120 Level FlightAware ADS-B
11:50AM 47.3944 -120.0494 92° East 397 457 17,000 -960 Climbing Seattle Center
11:51AM 47.3911 -119.9136 92° East 334 384 15,000 -2,340 Descending Seattle Center
11:52AM 47.3358 -119.8200 131° Southeast 314 361 12,300 -2,760 Descending Seattle Center
11:53AM 47.2733 -119.7372 138° Southeast 309 356 9,500 -2,760 Descending Seattle Center